ダブリン の空港の天気 - METARとTAF

ダブリン空港 ( EIDW / DUB ) - アイルランド ダブリン
飛行場実況気象(Metar)
観測時間01/19 11:00 IST (01/19 11:00 UTC)
風向・風速北西 3m/s
視程10km以上
天気現象
少しの雲 雲底高度 240m
全天の8割程度の雲 雲底高度 760m
気温6℃
湿度93%
気圧1005hPa
METAREIDW 191100Z 32005KT 9999 FEW008 BKN025 06/05 Q1005 NOSIG
過去の天気等 Google飛行場航空写真 Wunderground天気予報

過去48時間のMETAR

飛行場予報(TAF)
発表時間: 1/19 05:00 IST (1/19 05:00 UTC)
予報対象時間: 19日6時 IST ~ 20日6時 IST
風向・風速不定 2m/s
視程10km以上
全天の4割程度の雲 雲底高度 210m
全天の8割程度の雲 雲底高度 760m
19日6時 IST ~ 19日8時 IST に徐々に
風向・風速西 3m/s
19日6時 IST ~ 19日12時 IST に一時的に
天気現象弱い霧雨
全天の8割程度の雲 雲底高度 210m
19日6時 IST ~ 19日12時 IST に 確率 40% で一時的に
視程3000m
天気現象もや
全天の8割程度の雲 雲底高度 120m
19日7時 IST ~ 19日10時 IST に 確率 30% で一時的に
視程800m
天気現象
全天の8割程度の雲 雲底高度 60m
19日12時 IST ~ 20日2時 IST に 確率 30% で一時的に
視程3000m
天気現象もや
全天の8割程度の雲 雲底高度 120m
19日13時 IST ~ 19日16時 IST に徐々に
風向・風速西北西 3m/s
20日2時 IST ~ 20日6時 IST に 確率 30% で一時的に
視程800m
天気現象
全天の8割程度の雲 雲底高度 60m
TAF EIDW 190500Z 1906/2006 VRB03KT 9999 SCT007 BKN025
BECMG 1906/1908 26005KT
TEMPO 1906/1912 -DZ BKN007
PROB40 TEMPO 1906/1912 3000 BR BKN004
PROB30 TEMPO 1907/1910 0800 FG BKN002
PROB30 TEMPO 1912/2002 3000 BR BKN004
BECMG 1913/1916 29006KT
PROB30 TEMPO 2002/2006 0800 FG BKN002